Time;durP1;ratioP1;P1;durP2;ratioP2;P2;SDS_P1;SDS_P2;PMS_P1;PMS_P2;Temp;Humidity;BMP_temperature;BMP_pressure;BME280_temperature;BME280_humidity;BME280_pressure;Samples;Min_cycle;Max_cycle;Signal;HPM_P1;HPM_P2
2023/01/16 00:02:10;;;;;;;6.75;6.25;;;2.50;99.90;;;;;;5086915;28;20194;-68
2023/01/16 00:04:37;;;;;;;6.55;6.05;;;2.50;99.90;;;;;;5082645;28;20225;-68
2023/01/16 00:07:04;;;;;;;6.25;5.85;;;2.60;99.90;;;;;;5078759;28;20194;-69
2023/01/16 00:09:31;;;;;;;6.20;5.70;;;2.50;99.90;;;;;;5080296;28;20233;-68
2023/01/16 00:12:00;;;;;;;5.90;5.50;;;2.60;99.90;;;;;;5084666;28;20549;-68
2023/01/16 00:14:29;;;;;;;5.82;5.43;;;2.60;99.90;;;;;;5079964;28;20205;-69
2023/01/16 00:16:56;;;;;;;5.50;5.20;;;2.60;99.90;;;;;;5076290;28;20225;-68
2023/01/16 00:19:23;;;;;;;5.43;5.07;;;2.60;99.90;;;;;;5084242;28;20237;-68
2023/01/16 00:21:50;;;;;;;6.53;6.05;;;2.60;99.90;;;;;;5085642;28;20195;-69
2023/01/16 00:24:17;;;;;;;6.05;5.65;;;2.60;99.90;;;;;;5083407;28;20686;-68
2023/01/16 00:26:45;;;;;;;9.18;8.48;;;2.70;99.90;;;;;;5076837;28;20189;-68
2023/01/16 00:29:13;;;;;;;7.95;7.35;;;2.60;99.90;;;;;;5082300;28;20222;-69
2023/01/16 00:31:40;;;;;;;8.25;7.60;;;2.40;99.90;;;;;;5082237;28;20194;-68
2023/01/16 00:34:07;;;;;;;7.45;6.95;;;2.40;99.90;;;;;;5084782;28;20583;-68
2023/01/16 00:36:34;;;;;;;7.50;7.00;;;2.40;99.90;;;;;;5083337;28;20221;-69
2023/01/16 00:39:01;;;;;;;7.47;6.88;;;2.40;99.90;;;;;;5077088;28;20205;-69
2023/01/16 00:41:28;;;;;;;7.20;6.70;;;2.50;99.90;;;;;;5084836;28;20302;-68
2023/01/16 00:43:58;;;;;;;6.65;6.15;;;2.50;99.90;;;;;;5083557;28;20198;-68
2023/01/16 00:46:29;;;;;;;8.00;7.50;;;2.60;99.90;;;;;;5082396;28;20253;-68
2023/01/16 00:48:56;;;;;;;8.00;7.30;;;2.50;99.90;;;;;;5082714;28;20202;-68
2023/01/16 00:51:23;;;;;;;7.00;6.47;;;2.50;99.90;;;;;;5080153;28;20344;-69
2023/01/16 00:53:50;;;;;;;8.52;7.90;;;2.50;99.90;;;;;;5086685;28;20255;-68
2023/01/16 00:56:17;;;;;;;9.18;8.38;;;2.50;99.90;;;;;;5083756;28;20217;-68
2023/01/16 00:58:44;;;;;;;9.02;8.32;;;2.40;99.90;;;;;;5082893;28;20198;-69
2023/01/16 01:01:11;;;;;;;8.57;7.88;;;2.30;99.90;;;;;;5082002;28;20214;-69
2023/01/16 01:03:39;;;;;;;8.63;7.93;;;2.30;99.90;;;;;;5086493;28;20202;-68
2023/01/16 01:06:07;;;;;;;8.40;7.70;;;2.20;99.90;;;;;;5082824;28;20222;-68
2023/01/16 01:08:34;;;;;;;8.50;7.78;;;2.10;99.90;;;;;;5087426;28;20566;-68
2023/01/16 01:11:07;;;;;;;9.05;8.32;;;2.00;99.90;;;;;;5087012;28;20229;-68
2023/01/16 01:13:34;;;;;;;8.80;8.10;;;1.90;99.90;;;;;;5090564;28;20193;-68
2023/01/16 01:16:01;;;;;;;8.77;8.07;;;2.00;99.90;;;;;;5089963;28;20832;-68
2023/01/16 01:18:28;;;;;;;8.50;7.80;;;1.90;99.90;;;;;;5087508;28;20229;-68
2023/01/16 01:20:57;;;;;;;8.65;7.95;;;2.00;99.90;;;;;;5085978;28;20229;-68
2023/01/16 01:23:24;;;;;;;7.03;6.43;;;2.10;99.90;;;;;;5091505;28;20702;-68
2023/01/16 01:25:52;;;;;;;7.35;6.78;;;2.10;99.90;;;;;;5089046;28;20610;-69
2023/01/16 01:28:19;;;;;;;6.40;6.00;;;2.20;99.90;;;;;;5087410;28;20213;-68
2023/01/16 01:30:46;;;;;;;6.70;6.20;;;2.30;99.90;;;;;;5087223;28;20237;-68
2023/01/16 01:33:13;;;;;;;6.47;5.97;;;2.30;99.90;;;;;;5091215;28;20194;-68
2023/01/16 01:35:40;;;;;;;6.30;5.88;;;2.40;99.90;;;;;;5090604;28;20221;-69
2023/01/16 01:38:09;;;;;;;7.00;6.50;;;2.40;99.90;;;;;;5088174;28;20715;-69
2023/01/16 01:40:36;;;;;;;6.00;5.50;;;2.40;99.90;;;;;;5088928;28;20221;-69
2023/01/16 01:43:03;;;;;;;6.05;5.60;;;2.40;99.90;;;;;;5090767;28;20651;-69
2023/01/16 01:45:31;;;;;;;6.15;5.68;;;2.40;99.90;;;;;;5086314;28;20651;-69
2023/01/16 01:48:04;;;;;;;5.90;5.50;;;2.40;99.90;;;;;;5090123;28;20194;-68
2023/01/16 01:50:41;;;;;;;6.30;5.90;;;2.40;99.90;;;;;;5089057;28;20279;-68
2023/01/16 01:53:14;;;;;;;6.53;6.00;;;2.30;99.90;;;;;;5089206;28;20942;-69
2023/01/16 01:55:43;;;;;;;6.07;5.68;;;2.30;99.90;;;;;;5086112;28;20221;-68
2023/01/16 01:58:11;;;;;;;6.20;5.80;;;2.30;99.90;;;;;;5089429;28;20699;-68
2023/01/16 02:00:38;;;;;;;6.50;6.10;;;2.30;99.90;;;;;;5089612;28;20750;-69
2023/01/16 02:03:08;;;;;;;6.82;6.35;;;2.30;99.90;;;;;;5090000;28;20205;-68
2023/01/16 02:05:44;;;;;;;6.22;5.72;;;2.30;99.90;;;;;;5084641;28;20224;-68
2023/01/16 02:08:15;;;;;;;5.95;5.55;;;2.30;99.90;;;;;;5089291;28;20280;-68
2023/01/16 02:10:47;;;;;;;6.15;5.75;;;2.20;99.90;;;;;;5088920;28;20639;-69
2023/01/16 02:13:14;;;;;;;5.32;5.03;;;2.20;99.90;;;;;;5089055;28;20198;-69
2023/01/16 02:19:14;;;;;;;6.43;6.00;;;2.30;99.90;;;;;;5086377;28;20262;-69
2023/01/16 02:21:30;;;;;;;4.95;4.65;;;2.40;99.90;;;;;;5088150;28;20867;-69
2023/01/16 02:24:35;;;;;;;5.22;4.90;;;2.40;99.90;;;;;;5086542;28;20197;-69
2023/01/16 02:27:26;;;;;;;5.60;5.20;;;2.40;99.90;;;;;;5056672;28;20217;-68
2023/01/16 02:30:15;;;;;;;5.82;5.43;;;2.40;99.90;;;;;;5086499;28;20594;-69
2023/01/16 02:33:04;;;;;;;5.50;5.20;;;2.40;99.90;;;;;;5085318;28;20189;-68
2023/01/16 02:35:54;;;;;;;6.97;6.40;;;2.40;99.90;;;;;;5088336;28;20213;-68
2023/01/16 02:38:28;;;;;;;8.15;7.55;;;2.40;99.90;;;;;;5086603;28;20213;-69
2023/01/16 02:41:03;;;;;;;7.38;6.78;;;2.30;99.90;;;;;;5088090;28;20214;-69
2023/01/16 02:43:37;;;;;;;7.65;7.05;;;2.20;99.90;;;;;;5087374;28;20208;-68
2023/01/16 02:46:13;;;;;;;7.88;7.32;;;2.10;99.90;;;;;;5088501;28;20220;-68
2023/01/16 02:48:50;;;;;;;8.30;7.70;;;2.10;99.90;;;;;;5088785;28;20197;-68
2023/01/16 02:51:26;;;;;;;9.27;8.50;;;2.10;99.90;;;;;;5083260;28;20228;-69
2023/01/16 02:54:02;;;;;;;9.15;8.35;;;2.10;99.90;;;;;;5088093;28;20254;-69
2023/01/16 02:56:41;;;;;;;9.45;8.73;;;2.00;99.90;;;;;;5088493;28;20707;-68
2023/01/16 02:59:10;;;;;;;9.65;8.85;;;2.00;99.90;;;;;;5084133;28;20212;-69
2023/01/16 03:01:40;;;;;;;8.25;7.65;;;1.90;99.90;;;;;;5087095;28;20222;-71
2023/01/16 03:04:47;;;;;;;8.30;7.70;;;2.00;99.90;;;;;;5088839;28;20691;-68
2023/01/16 03:07:34;;;;;;;7.72;7.18;;;2.00;99.90;;;;;;5086290;28;20224;-68
2023/01/16 03:10:19;;;;;;;8.38;7.78;;;2.10;99.90;;;;;;5084386;28;20719;-68
2023/01/16 03:12:57;;;;;;;8.50;7.75;;;2.10;99.90;;;;;;5086651;28;20198;-69
2023/01/16 03:15:32;;;;;;;8.95;8.15;;;2.10;99.90;;;;;;5088596;28;20587;-68
2023/01/16 03:18:09;;;;;;;9.25;8.48;;;2.00;99.90;;;;;;5086966;28;20208;-68
2023/01/16 03:20:47;;;;;;;9.32;8.63;;;2.00;99.90;;;;;;5087796;28;20236;-69
2023/01/16 03:23:22;;;;;;;9.00;8.20;;;1.90;99.90;;;;;;5088012;28;20219;-68
2023/01/16 03:25:55;;;;;;;8.98;8.30;;;1.80;99.90;;;;;;5084959;28;20267;-68
2023/01/16 03:28:30;;;;;;;8.75;8.07;;;1.80;99.90;;;;;;5084981;28;20277;-68
2023/01/16 03:31:05;;;;;;;9.10;8.40;;;1.80;99.90;;;;;;5087541;28;20683;-68
2023/01/16 03:33:42;;;;;;;8.57;7.85;;;1.70;99.90;;;;;;5086598;28;20197;-68
2023/01/16 03:36:14;;;;;;;7.72;7.15;;;1.80;99.90;;;;;;5086378;28;20221;-68
2023/01/16 03:38:44;;;;;;;8.13;7.53;;;1.70;99.90;;;;;;5088028;28;20221;-68
2023/01/16 03:41:15;;;;;;;7.93;7.32;;;1.70;99.90;;;;;;5087389;28;20245;-68
2023/01/16 03:43:44;;;;;;;7.88;7.18;;;1.70;99.90;;;;;;5088401;28;20194;-68
2023/01/16 03:46:13;;;;;;;7.57;6.97;;;1.70;99.90;;;;;;5080908;28;20275;-69
2023/01/16 03:48:47;;;;;;;7.07;6.57;;;1.70;99.90;;;;;;5087056;28;20547;-68
2023/01/16 03:51:21;;;;;;;7.50;6.93;;;1.80;99.90;;;;;;5086746;28;20248;-68
2023/01/16 03:53:58;;;;;;;7.03;6.53;;;1.70;99.90;;;;;;5087722;28;20255;-68
2023/01/16 03:56:30;;;;;;;6.50;6.00;;;1.80;99.90;;;;;;5084328;28;20216;-67
2023/01/16 03:58:57;;;;;;;6.07;5.47;;;1.70;99.90;;;;;;5085141;28;20218;-68
2023/01/16 04:01:30;;;;;;;6.15;5.68;;;1.70;99.90;;;;;;5083818;28;20217;-67
2023/01/16 04:04:03;;;;;;;6.55;6.00;;;1.80;99.90;;;;;;5086594;28;20193;-68
2023/01/16 04:06:36;;;;;;;6.30;5.80;;;1.80;99.90;;;;;;5085116;28;20222;-68
2023/01/16 04:09:10;;;;;;;6.03;5.63;;;1.80;99.90;;;;;;5084689;28;20316;-68
2023/01/16 04:11:40;;;;;;;5.75;5.35;;;1.80;99.90;;;;;;5087900;28;20228;-67
2023/01/16 04:14:07;;;;;;;5.85;5.45;;;1.90;99.90;;;;;;5088404;28;20656;-68
2023/01/16 04:16:36;;;;;;;5.28;4.88;;;1.90;99.90;;;;;;5085276;28;20282;-67
2023/01/16 04:19:04;;;;;;;5.20;4.90;;;1.90;99.90;;;;;;5084052;28;20271;-68
2023/01/16 04:21:33;;;;;;;5.35;5.05;;;2.00;99.90;;;;;;5084400;28;20226;-68
2023/01/16 04:24:01;;;;;;;4.85;4.55;;;2.10;99.90;;;;;;5085921;28;20194;-67
2023/01/16 04:26:28;;;;;;;4.88;4.57;;;2.10;99.90;;;;;;5081581;28;20228;-68
2023/01/16 04:28:55;;;;;;;6.20;5.63;;;2.00;99.90;;;;;;5078184;28;20200;-66
2023/01/16 04:31:23;;;;;;;6.72;6.28;;;2.00;99.90;;;;;;5085981;28;20217;-68
2023/01/16 04:33:51;;;;;;;6.40;6.00;;;1.90;99.90;;;;;;5084157;28;20270;-67
2023/01/16 04:36:18;;;;;;;5.75;5.35;;;1.90;99.90;;;;;;5081543;28;20210;-68
2023/01/16 04:38:46;;;;;;;5.85;5.45;;;1.80;99.90;;;;;;5077995;28;20214;-67
2023/01/16 04:41:35;;;;;;;6.78;6.28;;;1.70;99.90;;;;;;5084594;28;20879;-67
2023/01/16 04:44:01;;;;;;;8.85;8.15;;;1.70;99.90;;;;;;5086101;28;20839;-68
2023/01/16 04:46:28;;;;;;;7.95;7.35;;;1.60;99.90;;;;;;5082975;28;20222;-67
2023/01/16 04:48:55;;;;;;;7.78;7.18;;;1.50;99.90;;;;;;5088444;28;20196;-68
2023/01/16 04:51:22;;;;;;;7.30;6.70;;;1.50;99.90;;;;;;5088121;28;20213;-67
2023/01/16 04:53:51;;;;;;;7.70;7.00;;;1.40;99.90;;;;;;5091167;28;20243;-67
2023/01/16 04:56:18;;;;;;;8.15;7.35;;;1.40;99.90;;;;;;5089849;28;20711;-67
2023/01/16 04:58:45;;;;;;;7.78;7.10;;;1.40;99.90;;;;;;5085566;28;20221;-67
2023/01/16 05:01:12;;;;;;;7.05;6.55;;;1.40;99.90;;;;;;5085155;28;20221;-68
2023/01/16 05:03:39;;;;;;;6.47;5.97;;;1.40;99.90;;;;;;5086553;28;20200;-68
2023/01/16 05:06:06;;;;;;;7.70;7.05;;;1.40;99.90;;;;;;5087903;28;20221;-68
2023/01/16 05:08:33;;;;;;;6.65;6.15;;;1.40;99.90;;;;;;5084827;28;20212;-68
2023/01/16 05:11:02;;;;;;;6.15;5.65;;;1.30;99.90;;;;;;5088433;28;20229;-67
2023/01/16 05:13:29;;;;;;;6.32;5.82;;;1.30;99.90;;;;;;5088218;28;20283;-68
2023/01/16 05:15:57;;;;;;;5.50;5.10;;;1.30;99.90;;;;;;5088943;28;20627;-67
2023/01/16 05:18:24;;;;;;;5.30;5.00;;;1.40;99.90;;;;;;5087521;28;20225;-68
2023/01/16 05:20:51;;;;;;;5.22;4.90;;;1.40;99.90;;;;;;5088451;28;20221;-67
2023/01/16 05:23:18;;;;;;;5.45;5.15;;;1.50;99.90;;;;;;5082291;28;21922;-67
2023/01/16 05:25:45;;;;;;;5.72;5.32;;;1.60;99.90;;;;;;5084306;28;20266;-67
2023/01/16 05:28:14;;;;;;;5.55;5.15;;;1.50;99.90;;;;;;5089258;28;20239;-67
2023/01/16 05:30:41;;;;;;;5.65;5.25;;;1.60;99.90;;;;;;5086612;28;20256;-67
2023/01/16 05:33:08;;;;;;;5.30;4.93;;;1.60;99.90;;;;;;5083730;28;20206;-67
2023/01/16 05:35:35;;;;;;;5.45;5.15;;;1.60;99.90;;;;;;5079955;28;20270;-67
2023/01/16 05:38:02;;;;;;;7.50;6.85;;;1.60;99.90;;;;;;5084446;28;20229;-67
2023/01/16 05:40:29;;;;;;;6.57;6.15;;;1.50;99.90;;;;;;5089289;28;20221;-67
2023/01/16 05:42:56;;;;;;;7.70;7.10;;;1.40;99.90;;;;;;5087533;28;20219;-66
2023/01/16 05:45:25;;;;;;;6.85;6.38;;;1.40;99.90;;;;;;5086975;28;20903;-67
2023/01/16 05:47:52;;;;;;;7.03;6.53;;;1.40;99.90;;;;;;5088863;28;20197;-67
2023/01/16 05:50:19;;;;;;;6.32;5.93;;;1.40;99.90;;;;;;5090395;28;20270;-67
2023/01/16 05:52:46;;;;;;;6.50;6.03;;;1.40;99.90;;;;;;5089687;28;20291;-67
2023/01/16 05:55:13;;;;;;;6.18;5.78;;;1.40;99.90;;;;;;5081915;28;20366;-67
2023/01/16 05:57:40;;;;;;;6.05;5.65;;;1.40;99.90;;;;;;5089544;28;20194;-67
2023/01/16 06:00:10;;;;;;;5.10;4.80;;;1.40;99.90;;;;;;5087251;28;20222;-66
2023/01/16 06:02:38;;;;;;;6.30;5.80;;;1.40;99.90;;;;;;5087135;28;20246;-67
2023/01/16 06:05:06;;;;;;;6.10;5.70;;;1.40;99.90;;;;;;5083226;28;20225;-67
2023/01/16 06:07:33;;;;;;;6.28;5.88;;;1.40;99.90;;;;;;5088281;28;20194;-68
2023/01/16 06:10:00;;;;;;;5.72;5.32;;;1.40;99.90;;;;;;5085816;28;20229;-67
2023/01/16 06:12:27;;;;;;;5.43;5.03;;;1.40;99.90;;;;;;5088145;28;20194;-67
2023/01/16 06:14:54;;;;;;;6.18;5.68;;;1.30;99.90;;;;;;5089293;28;20274;-67
2023/01/16 06:17:21;;;;;;;7.25;6.68;;;1.30;99.90;;;;;;5084416;28;20202;-66
2023/01/16 06:19:50;;;;;;;6.47;5.88;;;1.40;99.90;;;;;;5086712;28;20640;-66
2023/01/16 06:22:17;;;;;;;6.55;6.03;;;1.50;99.90;;;;;;5089636;28;20205;-66
2023/01/16 06:24:44;;;;;;;5.93;5.53;;;1.60;99.90;;;;;;5088719;28;20225;-66
2023/01/16 06:27:11;;;;;;;6.47;5.97;;;1.60;99.90;;;;;;5087040;28;20259;-66
2023/01/16 06:29:38;;;;;;;5.75;5.35;;;1.50;99.90;;;;;;5083637;28;20232;-67
2023/01/16 06:32:06;;;;;;;5.50;5.10;;;1.40;99.90;;;;;;5086349;28;20664;-67
2023/01/16 06:34:33;;;;;;;5.00;4.60;;;1.40;99.90;;;;;;5084458;28;20225;-67
2023/01/16 06:37:01;;;;;;;4.10;3.90;;;1.40;99.90;;;;;;5089082;28;20288;-66
2023/01/16 06:39:28;;;;;;;5.00;4.70;;;1.40;99.90;;;;;;5085718;28;20228;-67
2023/01/16 06:41:55;;;;;;;4.70;4.43;;;1.40;99.90;;;;;;5083588;28;20908;-65
2023/01/16 06:44:22;;;;;;;4.63;4.32;;;1.40;99.90;;;;;;5086751;28;20671;-68
2023/01/16 06:46:49;;;;;;;4.50;4.30;;;1.40;99.90;;;;;;5086823;28;20269;-67
2023/01/16 06:49:16;;;;;;;5.10;4.80;;;1.40;99.90;;;;;;5083931;28;20276;-67
2023/01/16 06:51:43;;;;;;;5.22;4.82;;;1.40;99.90;;;;;;5084381;28;20730;-67
2023/01/16 06:54:12;;;;;;;5.50;5.15;;;1.50;99.90;;;;;;5088668;28;20637;-67
2023/01/16 06:56:39;;;;;;;5.53;5.13;;;1.50;99.90;;;;;;5086148;28;20258;-67
2023/01/16 06:59:06;;;;;;;6.43;6.03;;;1.50;99.90;;;;;;5087465;28;20429;-67
2023/01/16 07:01:33;;;;;;;6.55;6.13;;;1.50;99.90;;;;;;5084617;28;20218;-68
2023/01/16 07:04:00;;;;;;;7.18;6.68;;;1.50;99.90;;;;;;5082519;28;20194;-67
2023/01/16 07:06:27;;;;;;;6.47;6.07;;;1.40;99.90;;;;;;5087815;28;20227;-67
2023/01/16 07:08:54;;;;;;;6.53;6.03;;;1.30;99.90;;;;;;5088046;28;20190;-66
2023/01/16 07:11:23;;;;;;;5.65;5.25;;;1.30;99.90;;;;;;5086010;28;20225;-68
2023/01/16 07:22:33;;;;;;;6.65;6.15;;;1.30;99.90;;;;;;5078182;28;20205;-68
2023/01/16 07:24:50;;;;;;;7.47;6.78;;;1.20;99.90;;;;;;5075078;28;20252;-67
2023/01/16 07:27:19;;;;;;;6.97;6.47;;;1.20;99.90;;;;;;5080900;28;20198;-67
2023/01/16 07:29:46;;;;;;;6.95;6.43;;;1.20;99.90;;;;;;5078994;28;20217;-67
2023/01/16 07:32:13;;;;;;;6.90;6.40;;;1.20;99.90;;;;;;5070990;28;20209;-67
2023/01/16 07:34:40;;;;;;;6.93;6.43;;;1.20;99.90;;;;;;5076838;28;20224;-66
2023/01/16 07:37:10;;;;;;;6.93;6.43;;;1.20;99.90;;;;;;5078274;28;20237;-67
2023/01/16 07:39:37;;;;;;;6.93;6.43;;;1.20;99.90;;;;;;5074732;28;20233;-67
2023/01/16 07:42:05;;;;;;;7.20;6.70;;;1.30;99.90;;;;;;5075482;28;20490;-66
2023/01/16 07:44:34;;;;;;;8.00;7.40;;;1.30;99.90;;;;;;5075830;28;20655;-66
2023/01/16 07:47:02;;;;;;;7.47;6.88;;;1.40;99.90;;;;;;5083109;28;20194;-67
2023/01/16 07:49:29;;;;;;;6.88;6.38;;;1.40;99.90;;;;;;5075927;28;20217;-67
2023/01/16 07:51:56;;;;;;;6.07;5.53;;;1.40;99.90;;;;;;5084242;28;20664;-67
2023/01/16 07:54:23;;;;;;;6.78;6.28;;;1.50;99.90;;;;;;5079674;28;20291;-67
2023/01/16 07:56:50;;;;;;;6.25;5.85;;;1.50;99.90;;;;;;5084393;28;20817;-67
2023/01/16 07:59:17;;;;;;;6.00;5.60;;;1.50;99.90;;;;;;5081052;28;20309;-67
2023/01/16 08:01:46;;;;;;;5.80;5.40;;;1.60;99.90;;;;;;5080124;28;20598;-67
2023/01/16 08:04:14;;;;;;;5.43;5.13;;;1.70;99.90;;;;;;5083114;28;20289;-67
2023/01/16 08:06:44;;;;;;;5.40;5.10;;;1.80;99.90;;;;;;5084621;28;20205;-67
2023/01/16 08:09:11;;;;;;;5.82;5.43;;;1.90;99.90;;;;;;5078545;28;20221;-67
2023/01/16 08:11:39;;;;;;;5.47;5.07;;;2.00;99.90;;;;;;5080927;28;20248;-67
2023/01/16 08:14:07;;;;;;;5.47;5.07;;;2.10;99.90;;;;;;5082966;28;20274;-67
2023/01/16 08:16:34;;;;;;;5.72;5.35;;;2.30;99.90;;;;;;5082510;28;20209;-67
2023/01/16 08:19:03;;;;;;;7.28;6.70;;;2.40;99.90;;;;;;5078863;28;20210;-67
2023/01/16 08:21:30;;;;;;;425.88;22.75;;;2.40;99.90;;;;;;5078187;28;20232;-67
2023/01/16 08:23:57;;;;;;;8.73;8.02;;;2.20;99.90;;;;;;5083212;28;20194;-66
2023/01/16 08:26:24;;;;;;;9.15;8.45;;;2.10;99.90;;;;;;5081370;28;20229;-67
2023/01/16 08:28:51;;;;;;;10.05;9.15;;;2.10;99.90;;;;;;5083147;28;20199;-66
2023/01/16 08:31:19;;;;;;;9.80;8.90;;;2.40;99.90;;;;;;5080692;28;20218;-66
2023/01/16 08:33:47;;;;;;;12.05;10.95;;;2.60;99.90;;;;;;5079577;28;20209;-67
2023/01/16 08:36:16;;;;;;;10.95;10.05;;;3.10;99.90;;;;;;5076171;28;20292;-67
2023/01/16 08:38:44;;;;;;;10.13;9.32;;;3.90;99.90;;;;;;5078570;28;20225;-67
2023/01/16 08:51:21;;;;;;;10.35;9.55;;;5.10;99.90;;;;;;5078690;28;20221;-67
2023/01/16 08:52:14;;;;;;;9.15;8.35;;;9.60;99.90;;;;;;5076182;28;20196;-67
2023/01/16 08:54:41;;;;;;;10.32;9.32;;;10.10;99.90;;;;;;5077203;28;20583;-68
2023/01/16 08:57:09;;;;;;;10.40;9.55;;;9.90;99.90;;;;;;5081000;28;20185;-67
2023/01/16 08:59:36;;;;;;;10.25;9.32;;;9.10;99.90;;;;;;5075245;28;20245;-70
2023/01/16 09:02:05;;;;;;;11.10;10.20;;;8.90;99.90;;;;;;5080550;28;20197;-70
2023/01/16 09:04:32;;;;;;;10.27;9.38;;;9.50;99.90;;;;;;5079981;28;20236;-68
2023/01/16 09:06:59;;;;;;;11.30;10.20;;;9.80;99.90;;;;;;5075143;28;20726;-68
2023/01/16 09:09:29;;;;;;;10.38;9.40;;;10.10;99.90;;;;;;5077070;28;20228;-68
2023/01/16 09:14:41;;;;;;;9.43;8.63;;;11.30;99.90;;;;;;5079515;28;20216;-69
2023/01/16 09:17:09;;;;;;;10.80;9.80;;;11.80;99.90;;;;;;5076652;28;20202;-69
2023/01/16 09:19:36;;;;;;;13.15;9.20;;;12.30;99.90;;;;;;5076824;28;20685;-69
2023/01/16 09:22:05;;;;;;;9.82;9.02;;;12.50;99.90;;;;;;5078642;28;20206;-70
2023/01/16 09:24:34;;;;;;;9.45;8.65;;;12.30;99.90;;;;;;5074132;28;20225;-69
2023/01/16 09:27:02;;;;;;;16.77;9.20;;;12.00;99.90;;;;;;5079184;28;20254;-71
2023/01/16 09:29:29;;;;;;;9.48;8.68;;;11.60;99.90;;;;;;5078681;28;20342;-69
2023/01/16 09:31:56;;;;;;;8.90;8.10;;;12.60;99.90;;;;;;5082149;28;20186;-69
2023/01/16 09:34:23;;;;;;;9.25;8.52;;;14.60;99.90;;;;;;5081469;28;20866;-71
2023/01/16 09:36:50;;;;;;;9.65;8.55;;;14.40;99.90;;;;;;5083555;28;20221;-69
2023/01/16 09:39:18;;;;;;;8.93;8.23;;;12.60;99.90;;;;;;5083766;28;20222;-70
2023/01/16 09:44:43;;;;;;;9.60;8.80;;;9.90;99.90;;;;;;5079457;28;20223;-69
2023/01/16 09:47:10;;;;;;;26.88;9.35;;;9.10;99.90;;;;;;5079199;28;20201;-72
2023/01/16 09:49:47;;;;;;;8.50;7.80;;;9.60;99.90;;;;;;5083113;28;20668;-70
2023/01/16 10:00:43;;;;;;;14.27;9.60;;;11.40;99.90;;;;;;5080250;28;20601;-70
2023/01/16 10:03:10;;;;;;;103.05;10.55;;;10.00;99.90;;;;;;5079621;28;20189;-70
2023/01/16 10:05:45;;;;;;;14.18;9.57;;;9.10;99.90;;;;;;5080330;28;20248;-72
2023/01/16 10:08:23;;;;;;;27.67;8.95;;;8.70;99.90;;;;;;5081717;28;20204;-72
2023/01/16 10:10:55;;;;;;;8.15;7.47;;;8.60;99.90;;;;;;5081204;28;20229;-70
2023/01/16 10:13:48;;;;;;;46.03;8.95;;;8.80;99.90;;;;;;5075356;28;20251;-70
2023/01/16 10:16:23;;;;;;;20.80;8.25;;;8.70;99.90;;;;;;5083051;28;20221;-70
2023/01/16 10:18:57;;;;;;;9.77;8.73;;;7.70;99.90;;;;;;5083709;28;20204;-70
2023/01/16 10:21:38;;;;;;;9.57;8.48;;;6.70;99.90;;;;;;5078121;28;20303;-70
2023/01/16 10:24:16;;;;;;;143.95;12.20;;;5.90;99.90;;;;;;5078642;28;20645;-69
2023/01/16 10:26:55;;;;;;;18.33;9.50;;;5.60;99.90;;;;;;5080017;28;20225;-69
2023/01/16 10:29:30;;;;;;;17.98;9.27;;;6.00;99.90;;;;;;5078491;28;20221;-69
2023/01/16 10:32:02;;;;;;;17.77;10.02;;;6.40;99.90;;;;;;5082721;28;20288;-70
2023/01/16 10:34:34;;;;;;;16.80;10.40;;;6.50;99.90;;;;;;5081218;28;20197;-70
2023/01/16 10:37:02;;;;;;;80.13;11.95;;;7.00;99.90;;;;;;5080588;28;20201;-70
2023/01/16 10:39:33;;;;;;;11.60;10.50;;;6.90;99.90;;;;;;5079363;28;20419;-69
2023/01/16 10:50:31;;;;;;;11.00;9.98;;;6.50;99.90;;;;;;5074815;28;20232;-70
2023/01/16 10:52:58;;;;;;;10.73;9.65;;;6.60;99.90;;;;;;5071972;28;20204;-69
2023/01/16 10:55:26;;;;;;;11.55;10.13;;;7.00;99.90;;;;;;5076967;28;20226;-70
2023/01/16 10:57:57;;;;;;;11.15;10.15;;;7.30;99.90;;;;;;5078323;28;20300;-70
2023/01/16 11:00:31;;;;;;;84.85;11.68;;;7.20;99.90;;;;;;5077282;28;20229;-70
2023/01/16 11:03:01;;;;;;;11.35;10.07;;;6.90;99.90;;;;;;5080939;28;20285;-69
2023/01/16 11:05:32;;;;;;;9.98;9.07;;;6.40;99.90;;;;;;5081287;28;20221;-70
2023/01/16 11:08:07;;;;;;;11.07;10.07;;;5.80;99.90;;;;;;5077746;28;20197;-69
2023/01/16 11:10:35;;;;;;;11.13;10.13;;;5.70;99.90;;;;;;5077257;28;20335;-70
2023/01/16 11:18:54;;;;;;;12.52;11.32;;;6.50;99.90;;;;;;5072645;28;20255;-69
2023/01/16 11:21:27;;;;;;;13.18;11.98;;;6.30;99.90;;;;;;5065146;28;20221;-70
2023/01/16 11:24:00;;;;;;;14.30;12.90;;;6.20;99.90;;;;;;5067213;28;20683;-70
2023/01/16 11:26:28;;;;;;;13.02;11.73;;;6.00;99.90;;;;;;5065531;28;20220;-70
2023/01/16 11:28:57;;;;;;;14.10;12.48;;;5.80;99.90;;;;;;5075778;28;20205;-70
2023/01/16 11:31:30;;;;;;;12.57;11.48;;;6.00;99.90;;;;;;5077129;28;20329;-71
2023/01/16 11:34:01;;;;;;;28.15;12.57;;;6.30;99.90;;;;;;5077251;28;20563;-70
2023/01/16 11:36:31;;;;;;;11.90;10.77;;;7.40;99.90;;;;;;5069178;28;20221;-71
2023/01/16 11:38:59;;;;;;;10.15;9.25;;;8.40;99.90;;;;;;5075957;28;20205;-71
2023/01/16 11:41:33;;;;;;;11.38;10.38;;;8.80;99.90;;;;;;5074629;28;20218;-71
2023/01/16 11:47:12;;;;;;;10.35;9.38;;;8.20;99.90;;;;;;5078836;28;20262;-70
2023/01/16 11:49:42;;;;;;;9.63;8.82;;;7.60;99.90;;;;;;5075027;28;20221;-73
2023/01/16 11:52:26;;;;;;;10.60;9.25;;;7.30;99.90;;;;;;5076294;28;20807;-70
2023/01/16 11:54:55;;;;;;;11.35;10.35;;;7.30;99.90;;;;;;5071903;28;20221;-69
2023/01/16 11:57:36;;;;;;;12.20;11.13;;;7.30;99.90;;;;;;5077045;28;20288;-69
2023/01/16 12:00:27;;;;;;;12.52;11.43;;;7.10;99.90;;;;;;5072281;28;20224;-68
2023/01/16 12:03:35;;;;;;;12.05;10.88;;;6.80;99.90;;;;;;5078916;28;21190;-69
2023/01/16 12:06:12;;;;;;;14.68;12.30;;;6.40;99.90;;;;;;5077743;28;20213;-69
2023/01/16 12:09:03;;;;;;;13.45;11.68;;;5.90;99.90;;;;;;5076077;28;20197;-69
2023/01/16 12:11:45;;;;;;;13.10;11.77;;;5.60;99.90;;;;;;5064405;28;20226;-69
2023/01/16 12:14:21;;;;;;;25.85;12.77;;;5.20;99.90;;;;;;5069134;28;20236;-69
2023/01/16 12:17:06;;;;;;;16.08;13.00;;;5.00;99.90;;;;;;5081887;28;20277;-70
2023/01/16 12:19:57;;;;;;;13.00;11.80;;;5.10;99.90;;;;;;5079689;28;20273;-70
2023/01/16 12:22:37;;;;;;;13.73;12.48;;;5.20;99.90;;;;;;5078490;28;20797;-70
2023/01/16 12:25:16;;;;;;;13.25;11.85;;;4.90;99.90;;;;;;5074121;28;20493;-69
2023/01/16 12:27:50;;;;;;;15.20;13.80;;;4.50;99.90;;;;;;5080397;28;20190;-70
2023/01/16 12:30:25;;;;;;;12.43;11.27;;;4.50;99.90;;;;;;5076622;28;20228;-70
2023/01/16 12:33:21;;;;;;;12.10;11.00;;;4.60;99.90;;;;;;5080128;28;20888;-69
2023/01/16 12:35:59;;;;;;;11.85;10.70;;;4.40;99.90;;;;;;5080156;28;20591;-70
2023/01/16 12:38:32;;;;;;;11.32;10.32;;;4.20;99.90;;;;;;5074866;28;20198;-70
2023/01/16 12:44:26;;;;;;;13.73;12.40;;;4.90;99.90;;;;;;5079769;28;20777;-71
2023/01/16 12:47:07;;;;;;;14.15;12.70;;;5.30;99.90;;;;;;5061878;28;20296;-69
2023/01/16 12:49:48;;;;;;;15.05;13.63;;;5.20;99.90;;;;;;5076774;28;20502;-69
2023/01/16 12:52:32;;;;;;;27.35;15.02;;;5.00;99.90;;;;;;5078857;28;20197;-70
2023/01/16 12:55:13;;;;;;;14.65;13.27;;;4.70;99.90;;;;;;5079571;28;20803;-69
2023/01/16 12:58:00;;;;;;;13.85;12.57;;;4.50;99.90;;;;;;5080748;28;20205;-69
2023/01/16 13:00:33;;;;;;;14.00;12.70;;;4.50;99.90;;;;;;5074759;28;20339;-69
2023/01/16 13:03:05;;;;;;;18.92;17.13;;;4.60;99.90;;;;;;5080106;28;20194;-70
2023/01/16 13:05:36;;;;;;;13.73;12.43;;;4.60;99.90;;;;;;5078360;28;20221;-69
2023/01/16 13:08:12;;;;;;;13.82;12.52;;;4.50;99.90;;;;;;5083451;28;20248;-70
2023/01/16 13:13:30;;;;;;;13.68;12.38;;;4.60;99.90;;;;;;5081546;28;20201;-69
2023/01/16 13:16:05;;;;;;;13.52;12.20;;;4.70;99.90;;;;;;5081648;28;20786;-69
2023/01/16 13:18:39;;;;;;;21.23;13.88;;;4.70;99.90;;;;;;5082213;28;20193;-70
2023/01/16 13:21:12;;;;;;;13.82;12.55;;;4.50;99.90;;;;;;5080853;28;20316;-69
2023/01/16 13:23:46;;;;;;;21.73;15.50;;;4.30;99.90;;;;;;5078611;28;20197;-69
2023/01/16 13:26:16;;;;;;;14.65;13.15;;;4.00;99.90;;;;;;5082001;28;20213;-70
2023/01/16 13:28:47;;;;;;;83.63;15.93;;;3.70;99.90;;;;;;5077345;28;20197;-69
2023/01/16 13:31:24;;;;;;;15.60;13.98;;;3.60;99.90;;;;;;5081342;28;20220;-69
2023/01/16 13:33:55;;;;;;;204.48;20.05;;;3.40;99.90;;;;;;5083757;28;20197;-69
2023/01/16 13:36:53;;;;;;;126.90;17.60;;;3.20;99.90;;;;;;5081982;28;20229;-69
2023/01/16 13:39:58;;;;;;;103.70;15.65;;;3.10;99.90;;;;;;5082296;28;20598;-69
2023/01/16 13:42:27;;;;;;;171.35;22.08;;;3.00;99.90;;;;;;5009173;28;20942;-69
2023/01/16 13:47:43;;;;;;;181.65;20.42;;;2.70;99.90;;;;;;5083505;28;21022;-69
2023/01/16 13:50:21;;;;;;;86.70;27.02;;;2.60;99.90;;;;;;5081797;28;20213;-70
2023/01/16 13:52:49;;;;;;;21.08;17.27;;;2.60;99.90;;;;;;5079695;28;20198;-69
2023/01/16 13:55:29;;;;;;;123.13;20.27;;;2.70;99.90;;;;;;5081533;28;20213;-69
2023/01/16 13:58:06;;;;;;;113.35;19.65;;;2.70;99.90;;;;;;5080751;28;21022;-69
2023/01/16 14:00:34;;;;;;;35.28;17.15;;;2.70;99.90;;;;;;5082239;28;20218;-69
2023/01/16 14:03:17;;;;;;;88.38;19.98;;;2.70;99.90;;;;;;5083402;28;20227;-69
2023/01/16 14:05:48;;;;;;;19.67;17.70;;;2.70;99.90;;;;;;5080887;28;20795;-69
2023/01/16 14:11:29;;;;;;;14.48;13.07;;;2.90;99.90;;;;;;5079145;28;20286;-69
2023/01/16 14:16:30;;;;;;;11.88;10.77;;;2.90;99.90;;;;;;5085166;28;20205;-69
2023/01/16 14:17:09;;;;;;;11.35;10.27;;;3.00;99.90;;;;;;5082195;28;20227;-69